Latest Weather Observations for Terrey Hills

IDN60801

Issued at 8:33 pm EST Sunday 24 July 2016 (issued every 30 minutes, with the page automatically refreshed every 10 minutes)

About weather observations | Map of weather stations | Latest weather observations for NSW | Other Formats
Station Details ID: 066059 Name: TERREY HILLS AWS Lat: -33.69 Lon: 151.23 Height: 199.0 m
Data from the previous 72 hours. | See also: Recent months at Terrey Hills
Date/Time
EST
Temp
°C
App
Temp
°C
Dew
Point
°C
Rel
Hum
%
Delta-T
°C
Wind Press
QNH
hPa
Press
MSL
hPa
Rain since
9am
mm
Dir  Spd
km/h
Gust
km/h
Spd
kts
Gust
kts
24/08:30pm 7.5 4.0 1.4 65 2.5 NNW 9 15 5 8 - - 0.0
24/08:00pm 7.9 4.4 1.1 62 2.8 NNW 9 15 5 8 - - 0.0
24/07:30pm 8.1 4.1 0.6 59 3.0 NNW 11 20 6 11 - - 0.0
24/07:00pm 8.0 4.5 1.2 62 2.8 NNW 9 15 5 8 - - 0.0
24/06:30pm 7.8 4.6 1.0 62 2.8 NNW 7 11 4 6 - - 0.0
24/06:00pm 8.4 5.1 0.4 57 3.2 NNW 7 11 4 6 - - 0.0
24/05:30pm 8.3 5.2 0.3 57 3.2 NNW 6 13 3 7 - - 0.0
24/05:00pm 9.0 6.0 0.5 55 3.5 NNW 6 9 3 5 - - 0.0
24/04:30pm 10.1 6.7 -0.4 48 4.2 NW 7 20 4 11 - - 0.0
24/04:00pm 10.9 7.2 -0.2 46 4.5 WNW 9 19 5 10 - - 0.0
24/03:30pm 10.8 7.1 -0.3 46 4.5 WNW 9 17 5 9 - - 0.0
24/03:00pm 11.2 8.0 0.9 49 4.3 WNW 7 15 4 8 - - 0.0
24/02:30pm 10.6 7.3 0.1 48 4.3 WNW 7 17 4 9 - - 0.0
24/02:00pm 10.3 6.6 -0.2 48 4.3 W 9 22 5 12 - - 0.0
24/01:30pm 10.2 6.8 -0.9 46 4.4 WNW 7 13 4 7 - - 0.0
24/01:00pm 9.8 6.0 -0.4 49 4.1 WNW 9 17 5 9 - - 0.0
24/12:30pm 9.5 6.1 -0.9 48 4.1 NW 7 15 4 8 - - 0.0
24/12:00pm 9.4 5.7 -0.2 51 3.9 WNW 9 15 5 8 - - 0.0
24/11:30am 9.3 5.6 0.2 53 3.7 WNW 9 17 5 9 - - 0.0
24/11:00am 8.8 5.2 0.5 56 3.4 WNW 9 17 5 9 - - 0.0
24/10:30am 8.1 4.9 0.8 60 3.0 WNW 7 15 4 8 - - 0.0
24/10:00am 7.6 4.4 1.0 63 2.7 WNW 7 15 4 8 - - 0.0
24/09:30am 6.7 3.1 0.6 65 2.4 WNW 9 13 5 7 - - 0.0
24/09:00am 6.3 2.6 -0.2 63 2.5 WNW 9 17 5 9 - - 0.4
24/08:30am 5.3 1.2 -0.1 68 2.1 WNW 11 17 6 9 - - 0.4
24/08:00am 5.0 1.2 -0.4 68 2.1 WNW 9 15 5 8 - - 0.4
24/07:30am 4.9 1.5 -0.5 68 2.1 WNW 7 13 4 7 - - 0.4
24/07:00am 4.3 0.5 -0.7 70 1.9 NW 9 17 5 9 - - 0.4
24/06:30am 4.1 0.3 -0.7 71 1.8 WNW 9 13 5 7 - - 0.4
24/06:00am 4.3 0.1 -0.9 69 1.9 W 11 15 6 8 - - 0.4
24/05:30am 4.0 -0.5 -0.4 73 1.7 WNW 13 20 7 11 - - 0.4
24/05:00am 4.0 -0.1 -0.4 73 1.7 WNW 11 17 6 9 - - 0.4
24/04:30am 4.3 0.5 -0.9 69 1.9 W 9 15 5 8 - - 0.4
24/04:00am 4.6 0.7 -1.4 65 2.2 WNW 9 13 5 7 - - 0.4
24/03:30am 5.8 1.7 -2.8 54 3.1 WSW 9 13 5 7 - - 0.4
24/03:00am 6.4 1.9 -3.0 51 3.4 WSW 11 17 6 9 - - 0.4
24/02:30am 6.2 2.5 -2.7 53 3.2 WSW 7 13 4 7 - - 0.4
24/02:00am 6.7 2.6 -2.7 51 3.5 SW 9 15 5 8 - - 0.4
24/01:30am 7.1 2.7 -2.6 50 3.6 SW 11 20 6 11 - - 0.4
24/01:00am 7.4 3.0 -2.1 51 3.6 SW 11 17 6 9 - - 0.4
24/12:30am 7.2 3.4 -0.7 57 3.1 WSW 9 15 5 8 - - 0.4
24/12:00am 6.8 3.5 0.0 62 2.7 W 7 9 4 5 - - 0.4
 
Date/Time
EST
Temp
°C
App
Temp
°C
Dew
Point
°C
Rel
Hum
%
Delta-T
°C
Wind Press
QNH
hPa
Press
MSL
hPa
Rain since
9am
mm
Dir  Spd
km/h
Gust
km/h
Spd
kts
Gust
kts
23/11:30pm 7.6 3.8 -0.4 57 3.1 WSW 9 11 5 6 - - 0.4
23/11:00pm 8.6 5.2 -0.7 52 3.7 WSW 7 13 4 7 - - 0.4
23/10:30pm 8.9 5.5 -0.9 50 3.9 SW 7 9 4 5 - - 0.4
23/10:00pm 8.8 5.3 -1.0 50 3.8 SW 7 11 4 6 - - 0.4
23/09:30pm 8.5 5.6 -1.0 51 3.7 WSW 4 6 2 3 - - 0.4
23/09:00pm 8.9 5.4 -1.2 49 3.9 WSW 7 9 4 5 - - 0.4
23/08:30pm 9.0 5.7 -1.1 49 4.0 W 6 9 3 5 - - 0.4
23/08:00pm 9.1 6.2 -1.3 48 4.1 NW 4 6 2 3 - - 0.4
23/07:30pm 9.9 6.4 -1.2 46 4.4 W 7 15 4 8 - - 0.4
23/07:00pm 10.4 6.2 -0.7 46 4.5 WNW 11 20 6 11 - - 0.4
23/06:30pm 10.5 7.1 -0.6 46 4.5 WNW 7 15 4 8 - - 0.4
23/06:00pm 11.3 8.1 -0.8 43 4.9 W 6 15 3 8 - - 0.4
23/05:30pm 12.1 7.5 -1.4 39 5.4 WNW 13 24 7 13 - - 0.4
23/05:00pm 12.8 6.8 -3.0 33 6.2 W 19 39 10 21 - - 0.4
23/04:30pm 13.6 7.6 -1.6 35 6.2 WNW 20 41 11 22 - - 0.4
23/04:00pm 14.3 7.6 -1.3 34 6.4 WNW 24 44 13 24 - - 0.4
23/03:30pm 14.8 8.9 -0.9 34 6.6 W 20 39 11 21 - - 0.4
23/03:00pm 15.2 9.3 -0.5 34 6.6 W 20 39 11 21 - - 0.4
23/02:30pm 15.2 8.7 0.6 37 6.3 WNW 24 48 13 26 - - 0.4
23/02:00pm 15.0 7.7 0.1 36 6.4 W 28 54 15 29 - - 0.4
23/01:30pm 15.0 8.1 0.1 36 6.4 WNW 26 56 14 30 - - 0.4
23/01:23pm 15.0 7.7 0.1 36 6.4 WNW 28 56 15 30 - - 0.4
23/01:00pm 14.9 8.0 0.4 37 6.2 W 26 46 14 25 - - 0.4
23/12:30pm 14.8 7.9 -0.1 36 6.3 WNW 26 43 14 23 - - 0.4
23/12:18pm 14.9 7.7 0.4 37 6.2 WNW 28 48 15 26 - - 0.4
23/12:00pm 14.7 8.7 0.9 39 6.0 WNW 22 41 12 22 - - 0.4
23/11:30am 14.4 8.7 0.3 38 6.0 WNW 20 37 11 20 - - 0.4
23/11:00am 14.3 9.3 1.6 42 5.6 WNW 17 46 9 25 - - 0.2
23/10:30am 13.8 6.5 0.1 39 5.8 WNW 28 54 15 29 - - 0.2
23/10:12am 13.5 6.2 -0.2 39 5.7 W 28 50 15 27 - - 0.2
23/10:00am 13.5 7.0 0.2 40 5.6 W 24 43 13 23 - - 0.2
23/09:30am 13.1 6.5 -0.5 39 5.6 W 24 46 13 25 - - 0.2
23/09:16am 13.0 5.6 -1.0 38 5.7 W 28 48 15 26 - - 0.2
23/09:00am 13.0 6.3 -1.0 38 5.7 W 24 50 13 27 - - 4.2
23/08:30am 13.0 6.5 0.1 41 5.4 WNW 24 46 13 25 - - 4.2
23/08:00am 13.2 7.1 0.3 41 5.5 WNW 22 44 12 24 - - 4.0
23/07:30am 13.4 5.6 -0.6 38 5.8 WNW 30 61 16 33 - - 3.6
23/07:28am 13.3 6.0 -0.3 39 5.7 WNW 28 56 15 30 - - 3.6
23/07:00am 13.0 8.3 3.4 52 4.3 WNW 17 28 9 15 - - 3.0
23/06:37am 13.7 6.9 3.2 49 4.7 WNW 28 50 15 27 - - 2.8
23/06:30am 13.7 8.5 3.5 50 4.6 WNW 20 44 11 24 - - 2.8
23/06:00am 14.2 9.3 3.9 50 4.7 WNW 19 39 10 21 - - 2.4
23/05:30am 14.3 9.8 4.3 51 4.7 WNW 17 41 9 22 - - 2.2
23/05:00am 14.3 10.3 4.9 53 4.4 W 15 24 8 13 - - 1.8
23/04:30am 15.2 9.4 4.3 48 5.1 W 24 39 13 21 - - 1.6
23/04:00am 15.4 10.0 4.5 48 5.1 WNW 22 39 12 21 - - 1.4
23/03:30am 15.9 11.0 5.2 49 5.1 WNW 20 41 11 22 - - 1.2
23/03:00am 15.6 12.9 11.8 78 2.1 WNW 17 46 9 25 - - 0.8
23/02:30am 15.5 13.7 13.2 86 1.3 W 15 30 8 16 - - 0.8
23/02:00am 15.9 15.8 15.9 100 0.0 W 11 20 6 11 - - 0.6
23/01:30am 16.6 16.7 16.6 100 0.0 WSW 11 19 6 10 - - 0.4
23/01:00am 16.7 17.3 16.7 100 0.0 WSW 9 17 5 9 - - 0.2
23/12:30am 17.5 16.0 16.4 93 0.7 SW 19 35 10 19 - - 0.0
23/12:00am 22.3 19.9 12.8 55 5.5 NW 17 30 9 16 - - 0.0
 
Date/Time
EST
Temp
°C
App
Temp
°C
Dew
Point
°C
Rel
Hum
%
Delta-T
°C
Wind Press
QNH
hPa
Press
MSL
hPa
Rain since
9am
mm
Dir  Spd
km/h
Gust
km/h
Spd
kts
Gust
kts
22/11:30pm 21.7 20.4 13.6 60 4.7 NNW 13 26 7 14 - - 0.0
22/11:00pm 21.3 19.9 13.5 61 4.5 NNW 13 22 7 12 - - 0.0
22/10:30pm 21.3 19.9 13.5 61 4.5 NNW 13 24 7 13 - - 0.0
22/10:00pm 21.2 20.2 13.4 61 4.5 NNW 11 30 6 16 - - 0.0
22/09:30pm 20.8 19.9 13.7 64 4.1 NNW 11 26 6 14 - - 0.0
22/09:00pm 20.7 19.8 13.6 64 4.1 NW 11 24 6 13 - - 0.0
22/08:30pm 20.9 19.6 13.6 63 4.2 NNW 13 26 7 14 - - 0.0
22/08:00pm 21.0 19.7 13.7 63 4.2 NNW 13 24 7 13 - - 0.0
22/07:30pm 20.9 18.8 13.6 63 4.2 NW 17 35 9 19 - - 0.0
22/07:00pm 20.9 18.8 13.6 63 4.2 NNW 17 33 9 18 - - 0.0
22/06:30pm 20.9 19.4 14.1 65 4.0 NNW 15 28 8 15 - - 0.0
22/06:00pm 20.6 20.3 14.5 68 3.6 NNW 9 22 5 12 - - 0.0
22/05:30pm 20.7 20.5 14.6 68 3.6 NW 9 15 5 8 - - 0.0
22/05:00pm 21.3 20.7 14.5 65 4.0 NNW 11 24 6 13 - - 0.0
22/04:30pm 22.3 20.3 13.9 59 4.9 NW 17 35 9 19 - - 0.0
22/04:00pm 23.0 21.6 14.6 59 5.0 NW 15 28 8 15 - - 0.0
22/03:30pm 23.4 22.1 14.9 59 5.1 NW 15 43 8 23 - - 0.0
22/03:00pm 23.4 23.8 16.4 64 4.3 NNW 9 17 5 9 - - 0.0
22/02:30pm 22.6 21.8 16.2 67 3.9 NNW 15 32 8 17 - - 0.0
22/02:00pm 22.9 22.7 16.7 68 3.8 NNW 13 24 7 13 - - 0.0
22/01:30pm 22.2 21.7 16.9 72 3.3 NNW 15 28 8 15 - - 0.0
22/01:00pm 22.1 20.8 16.8 72 3.3 NNW 19 33 10 18 - - 0.0
22/12:30pm 22.4 21.9 16.9 71 3.4 NNW 15 30 8 16 - - 0.0
22/12:00pm 20.6 19.1 16.2 76 2.7 NNW 19 35 10 19 - - 0.0
22/11:30am 20.2 18.9 15.8 76 2.6 NNW 17 35 9 19 - - 0.0
22/11:00am 19.9 18.4 16.2 79 2.2 NNW 19 35 10 19 - - 0.0
22/10:30am 19.6 18.0 16.1 80 2.1 NNW 19 35 10 19 - - 0.0
22/10:00am 18.8 18.1 15.5 81 2.0 NNW 13 24 7 13 - - 0.0
22/09:30am 18.1 16.9 15.0 82 1.8 NNW 15 24 8 13 - - 0.0
22/09:00am 17.9 16.2 14.8 82 1.8 NNW 17 28 9 15 - - 0.4
22/08:30am 17.3 15.6 14.6 84 1.6 NNW 17 41 9 22 - - 0.4
22/08:00am 16.4 14.5 14.2 87 1.3 NW 17 30 9 16 - - 0.4
22/07:30am 15.5 13.8 13.7 89 1.0 NW 15 28 8 15 - - 0.4
22/07:00am 14.5 12.4 13.7 95 0.5 NW 17 33 9 18 - - 0.4
22/06:30am 13.8 12.8 13.3 97 0.3 NW 11 19 6 10 - - 0.4
22/06:00am 13.7 12.3 13.4 98 0.2 NW 13 19 7 10 - - 0.4
22/05:30am 13.4 12.3 13.1 98 0.2 NW 11 15 6 8 - - 0.4
22/05:00am 13.2 12.4 13.0 99 0.1 WNW 9 17 5 9 - - 0.4
22/04:30am 12.9 11.7 12.9 100 0.0 NW 11 17 6 9 - - 0.2
22/04:00am 12.3 11.3 12.3 100 0.0 NW 9 15 5 8 - - 0.2
22/03:30am 12.1 11.4 12.1 100 0.0 NW 7 13 4 7 - - 0.2
22/03:00am 12.4 11.1 12.4 100 0.0 NW 11 15 6 8 - - 0.2
22/02:30am 12.3 11.3 12.3 100 0.0 NW 9 15 5 8 - - 0.2
22/02:00am 12.6 11.7 12.6 100 0.0 NW 9 15 5 8 - - 0.2
22/01:30am 12.6 11.7 12.6 100 0.0 NW 9 17 5 9 - - 0.2
22/01:00am 12.7 12.2 12.7 100 0.0 NW 7 13 4 7 - - 0.2
22/12:30am 12.9 12.1 12.9 100 0.0 NW 9 15 5 8 - - 0.2
22/12:00am 13.2 12.5 13.2 100 0.0 NW 9 17 5 9 - - 0.2
 
Date/Time
EST
Temp
°C
App
Temp
°C
Dew
Point
°C
Rel
Hum
%
Delta-T
°C
Wind Press
QNH
hPa
Press
MSL
hPa
Rain since
9am
mm
Dir  Spd
km/h
Gust
km/h
Spd
kts
Gust
kts
21/11:30pm 13.4 12.4 13.4 100 0.0 NNW 11 19 6 10 - - 0.2
21/11:00pm 13.6 12.7 13.6 100 0.0 NNW 11 17 6 9 - - 0.2
21/10:30pm 13.6 13.0 13.6 100 0.0 NNW 9 15 5 8 - - 0.2
21/10:00pm 13.9 13.1 13.9 100 0.0 NNW 11 15 6 8 - - 0.2
21/09:30pm 14.1 13.7 14.1 100 0.0 N 9 15 5 8 - - 0.2
21/09:00pm 14.2 13.8 14.2 100 0.0 N 9 13 5 7 - - 0.2

Other Formats:

Comma delimited format used in spreadsheet applications
http://www.bom.gov.au/fwo/IDN60801/IDN60801.94759.axf

JavaScript Object Notation format (JSON) in row-major order
http://www.bom.gov.au/fwo/IDN60801/IDN60801.94759.json